Catàleg de serveis del Meteocat
Campanya meteocatpedra

Dades de l'estació automàtica Sabadell - Parc Agrari

?
?
Resum diari 23:00 TU
Dades diàries de l'estació meteorològica
Temperatura mitjana 23.4 °C
Temperatura màxima 28.9 °C 12:28 TU
Temperatura mínima 19.3 °C 22:54 TU
Humitat relativa mitjana 68%
Precipitació acumulada 0.0 mm
Ratxa màxima del vent (10 m) 32.8 km/h - 113º 14:53 TU
Pressió atmosfèrica mitjana 1011.1 hPa
Irradiació solar global 25.5 MJ/m2

El tram horari està expressat en Temps Universal (TU). Cal sumar una hora en horari d'hivern i dues en horari d'estiu per passar a l'hora oficial.

Sabadell - Parc Agrari

Metadades estació meteorol´gica
Municipi Sabadell
Comarca Vallès Occidental
Altitud 258 m
Data alta 23.10.2008
Estat actual Operativa
Dades de període
Període
TU
TM
°C
TX
°C
TN
°C
HRM
%
PPT
mm
VVM (10 m)
km/h
DVM (10 m)
graus
VVX (10 m)
km/h
PM
hPa
RS
W/m2
00:00 - 00:30 20.7 20.9 20.5 83 0.0 4.3 278 8.3 1010.7 0
00:30 - 01:00 20.6 20.8 20.4 84 0.0 2.9 106 6.8 1010.4 0
01:00 - 01:30 20.0 20.4 19.9 87 0.0 2.9 6 4.7 1010.3 0
01:30 - 02:00 19.9 20.1 19.7 89 0.0 6.5 298 9.7 1010.1 0
02:00 - 02:30 20.6 21.0 20.2 87 0.0 8.3 289 11.9 1009.9 0
02:30 - 03:00 21.1 21.2 20.9 86 0.0 6.8 268 13.3 1009.7 0
03:00 - 03:30 20.8 21.2 20.0 86 0.0 3.2 310 10.4 1009.5 0
03:30 - 04:00 19.8 20.0 19.6 88 0.0 4.3 9 7.2 1009.7 0
04:00 - 04:30 19.5 19.7 19.4 86 0.0 4.0 35 9.0 1009.9 0
04:30 - 05:00 19.6 19.7 19.5 85 0.0 5.4 29 10.4 1010.0 9
05:00 - 05:30 19.6 20.0 19.4 87 0.0 5.0 23 9.0 1010.1 27
05:30 - 06:00 20.8 21.7 20.0 82 0.0 6.5 51 10.8 1010.2 98
06:00 - 06:30 22.0 22.3 21.7 70 0.0 8.3 27 14.4 1010.3 127
06:30 - 07:00 22.8 23.7 22.1 60 0.0 9.0 356 14.8 1010.4 245
07:00 - 07:30 23.8 24.2 23.4 60 0.0 7.9 4 14.0 1010.4 284
07:30 - 08:00 24.1 24.2 24.0 62 0.0 6.5 18 10.8 1010.4 219
08:00 - 08:30 24.2 24.7 23.7 64 0.0 6.5 47 13.0 1010.5 190
08:30 - 09:00 24.3 25.2 23.7 68 0.0 7.6 83 16.6 1010.5 471
09:00 - 09:30 24.6 25.8 24.1 61 0.0 10.8 139 19.4 1010.6 452
09:30 - 10:00 26.0 26.6 25.7 52 0.0 11.2 154 20.5 1010.4 846
10:00 - 10:30 26.5 27.5 26.1 50 0.0 9.7 133 20.5 1010.4 849
10:30 - 11:00 27.1 27.9 26.7 50 0.0 12.2 135 24.8 1010.4 874
11:00 - 11:30 27.5 28.1 26.9 52 0.0 15.5 125 27.7 1010.1 946
11:30 - 12:00 27.6 27.9 27.0 54 0.0 16.6 138 28.1 1009.9 1.024
12:00 - 12:30 27.7 28.9 26.7 52 0.0 15.5 140 28.8 1009.8 880
12:30 - 13:00 28.1 28.8 27.6 49 0.0 15.1 143 26.6 1009.5 950
13:00 - 13:30 27.9 28.5 27.3 49 0.0 16.9 136 28.4 1009.5 912
13:30 - 14:00 27.9 28.4 27.5 48 0.0 17.3 132 30.6 1009.7 864
14:00 - 14:30 27.9 28.3 27.3 46 0.0 15.1 133 26.6 1009.7 801
14:30 - 15:00 27.5 28.1 26.8 52 0.0 17.3 123 32.8 1009.8 656
15:00 - 15:30 27.0 27.9 26.6 56 0.0 19.1 119 30.2 1009.9 567
15:30 - 16:00 26.6 27.2 26.2 57 0.0 19.8 120 32.4 1010.2 539
16:00 - 16:30 25.9 26.6 25.4 58 0.0 18.4 115 29.9 1010.7 392
16:30 - 17:00 24.9 25.7 24.5 60 0.0 15.1 136 28.4 1011.2 264
17:00 - 17:30 25.1 25.4 24.8 59 0.0 10.8 140 21.6 1011.3 323
17:30 - 18:00 24.9 25.6 24.4 59 0.0 10.4 153 18.7 1011.5 207
18:00 - 18:30 24.1 24.5 23.8 62 0.0 10.8 139 18.0 1012.1 108
18:30 - 19:00 23.7 23.8 23.5 64 0.0 7.2 154 14.8 1012.5 49
19:00 - 19:30 23.2 23.4 22.9 66 0.0 5.8 148 10.1 1012.9 8
19:30 - 20:00 22.6 22.9 22.1 68 0.0 4.0 175 7.9 1013.3 0
20:00 - 20:30 21.6 22.1 20.9 73 0.0 2.9 200 5.4 1013.8 0
20:30 - 21:00 20.9 21.1 20.7 76 0.0 3.6 226 6.1 1014.3 0
21:00 - 21:30 20.7 20.7 20.5 78 0.0 4.0 269 5.4 1014.5 0
21:30 - 22:00 20.2 20.5 20.0 80 0.0 3.2 268 6.5 1014.7 0
22:00 - 22:30 19.7 19.9 19.5 83 0.0 2.9 281 4.0 1015.1 0
22:30 - 23:00 19.5 19.5 19.3 84 0.0 4.3 298 7.9 1015.2 0
23:00 - 23:30 19.9 20.0 19.5 83 0.0 7.6 308 10.4 1015.3 0

Les dades en taronja només han passat un control de qualitat automàtic. Resta pendent la seva validació definitiva.